Terminal Aerodrome Forecast
Issued by NWS

Home | Current Version | Previous Version | Text Only | Print | Product List | Glossary On
Versions: 1 2 3 4 5 6 7 8 9 10 11 12 13 14 15 16 17 18 19 20
719
FTUS46 KSEW 210526
TAFCLM
TAF
KCLM 210526Z 2106/2206 24005KT P6SM SCT040 BKN050 OVC060
      TEMPO 2106/2110 2SM BR OVC030
     FM211400 26007KT P6SM VCSH BKN010 OVC018
     FM212000 29011KT P6SM BKN150
     FM220300 26009KT P6SM SCT150 SCT250=

USA.gov is the U.S. government's official web portal to all federal, state and local government web resources and services.